createdAt,value
2019-03-10T00:00:32.961Z,100291.94
2019-03-10T00:03:01.549Z,100280.51
2019-03-10T00:05:30.118Z,100272.11
2019-03-10T00:07:58.958Z,100273.17
2019-03-10T00:10:28.008Z,100272.39
2019-03-10T00:12:56.562Z,100277.23
2019-03-10T00:15:25.176Z,100280.48
2019-03-10T00:17:53.853Z,100282.94
2019-03-10T00:20:22.507Z,100290.27
2019-03-10T00:22:51.117Z,100288.96
2019-03-10T00:25:19.785Z,100289.76
2019-03-10T00:27:48.404Z,100281.92
2019-03-10T00:30:18.221Z,100286.20
2019-03-10T00:32:46.941Z,100288.94
2019-03-10T00:35:15.475Z,100294.95
2019-03-10T00:37:44.122Z,100283.77
2019-03-10T00:40:30.664Z,100300.06
2019-03-10T00:43:25.209Z,100291.91
2019-03-10T00:46:13.275Z,100290.83
2019-03-10T00:49:13.834Z,100294.85
2019-03-10T00:52:01.730Z,100307.38
2019-03-10T00:54:30.362Z,100298.41
2019-03-10T00:56:58.986Z,100285.14
2019-03-10T00:59:27.696Z,100296.52
2019-03-10T01:01:56.290Z,100290.27
2019-03-10T01:04:24.892Z,100295.14
2019-03-10T01:06:53.825Z,100294.31
2019-03-10T01:09:22.466Z,100285.34
2019-03-10T01:11:51.483Z,100295.11
2019-03-10T01:14:20.131Z,100284.53
2019-03-10T01:16:48.650Z,100289.39
2019-03-10T01:19:18.283Z,100283.14
2019-03-10T01:21:48.456Z,100279.89
2019-03-10T01:24:17.102Z,100274.75
2019-03-10T01:26:45.773Z,100266.60
2019-03-10T01:29:14.429Z,100262.50
2019-03-10T01:31:52.103Z,100265.47
2019-03-10T01:34:41.729Z,100262.78
2019-03-10T01:37:10.265Z,100261.12
2019-03-10T01:39:38.846Z,100250.80
2019-03-10T01:42:07.536Z,100247.01
2019-03-10T01:44:36.125Z,100247.27
2019-03-10T01:47:04.670Z,100239.41
2019-03-10T01:49:33.290Z,100250.52
2019-03-10T01:52:01.850Z,100245.62
2019-03-10T01:54:30.465Z,100241.86
2019-03-10T01:56:59.015Z,100236.66
2019-03-10T01:59:27.663Z,100233.18
2019-03-10T02:01:56.181Z,100243.95
2019-03-10T02:04:25.156Z,100240.45
2019-03-10T02:06:53.665Z,100236.13
2019-03-10T02:09:22.258Z,100228.52
2019-03-10T02:11:50.845Z,100225.27
2019-03-10T02:14:19.420Z,100229.31
2019-03-10T02:16:47.922Z,100233.37
2019-03-10T02:19:16.492Z,100236.91
2019-03-10T02:21:45.075Z,100228.80
2019-03-10T02:24:23.363Z,100218.27
2019-03-10T02:26:43.829Z,100227.25
2019-03-10T02:29:12.487Z,100229.17
2019-03-10T02:31:41.042Z,100232.15
2019-03-10T02:34:09.624Z,100228.84
2019-03-10T02:36:38.192Z,100215.79
2019-03-10T02:39:07.762Z,100208.23
2019-03-10T02:41:36.346Z,100209.00
2019-03-10T02:44:04.973Z,100201.13
2019-03-10T02:46:33.820Z,100191.92
2019-03-10T02:49:02.423Z,100197.06
2019-03-10T02:51:31.234Z,100195.42
2019-03-10T02:53:59.859Z,100188.88
2019-03-10T02:56:28.390Z,100193.23
2019-03-10T02:58:57.206Z,100190.47
2019-03-10T03:01:25.822Z,100183.98
2019-03-10T03:03:54.786Z,100184.25
2019-03-10T03:06:23.369Z,100188.27
2019-03-10T03:08:52.048Z,100181.23
2019-03-10T03:11:20.612Z,100180.13
2019-03-10T03:13:49.213Z,100179.84
2019-03-10T03:16:17.833Z,100177.67
2019-03-10T03:18:47.213Z,100173.88
2019-03-10T03:21:16.171Z,100166.28
2019-03-10T03:23:44.810Z,100160.05
2019-03-10T03:26:13.364Z,100141.31
2019-03-10T03:28:42.234Z,100149.73
2019-03-10T03:31:10.840Z,100154.91
2019-03-10T03:33:39.732Z,100155.49
2019-03-10T03:36:14.461Z,100152.75
2019-03-10T03:38:49.011Z,100153.28
2019-03-10T03:41:20.671Z,100148.67
2019-03-10T03:43:49.270Z,100153.08
2019-03-10T03:46:17.818Z,100151.44
2019-03-10T03:48:46.462Z,100153.05
2019-03-10T03:51:15.084Z,100153.35
2019-03-10T03:53:43.637Z,100156.91
2019-03-10T03:56:12.240Z,100161.23
2019-03-10T03:58:40.797Z,100157.47
2019-03-10T04:01:16.505Z,100140.06
2019-03-10T04:03:45.135Z,100149.59
2019-03-10T04:06:13.737Z,100147.70
2019-03-10T04:08:42.300Z,100151.73
2019-03-10T04:11:10.914Z,100155.00
2019-03-10T04:13:39.632Z,100152.27
2019-03-10T04:16:25.611Z,100162.63
2019-03-10T04:18:54.458Z,100144.68
2019-03-10T04:21:22.987Z,100143.07
2019-03-10T04:23:51.623Z,100140.59
2019-03-10T04:26:20.233Z,100152.57
2019-03-10T04:28:48.901Z,100153.11
2019-03-10T04:31:17.463Z,100141.98
2019-03-10T04:33:46.118Z,100139.81
2019-03-10T04:36:14.623Z,100149.55
2019-03-10T04:38:43.248Z,100146.59
2019-03-10T04:41:12.223Z,100157.73
2019-03-10T04:43:40.918Z,100159.62
2019-03-10T04:46:10.924Z,100151.98
2019-03-10T04:48:39.623Z,100149.02
2019-03-10T04:51:08.182Z,100146.55
2019-03-10T04:53:36.786Z,100147.64
2019-03-10T04:56:10.031Z,100153.11
2019-03-10T04:58:40.305Z,100157.45
2019-03-10T05:01:08.868Z,100153.95
2019-03-10T05:03:37.471Z,100149.05
2019-03-10T05:06:05.964Z,100149.06
2019-03-10T05:08:34.532Z,100156.67
2019-03-10T05:11:03.093Z,100155.86
2019-03-10T05:13:31.715Z,100165.66
2019-03-10T05:16:00.230Z,100161.86
2019-03-10T05:18:28.867Z,100146.93
2019-03-10T05:20:57.400Z,100152.87
2019-03-10T05:23:40.022Z,100147.20
2019-03-10T05:26:08.923Z,100143.67
2019-03-10T05:28:40.463Z,100144.48
2019-03-10T05:31:09.155Z,100136.09
2019-03-10T05:33:37.782Z,100142.61
2019-03-10T05:36:06.462Z,100139.06
2019-03-10T05:38:35.442Z,100133.10
2019-03-10T05:41:04.103Z,100136.09
2019-03-10T05:43:32.726Z,100128.75
2019-03-10T05:46:01.311Z,100131.73
2019-03-10T05:48:29.891Z,100124.66
2019-03-10T05:50:58.480Z,100118.16
2019-03-10T05:53:27.060Z,100122.73
2019-03-10T05:55:55.730Z,100115.42
2019-03-10T05:58:24.499Z,100108.64
2019-03-10T06:00:53.119Z,100109.72
2019-03-10T06:03:21.635Z,100105.11
2019-03-10T06:05:50.261Z,100101.05
2019-03-10T06:08:18.861Z,100094.55
2019-03-10T06:10:47.535Z,100095.63
2019-03-10T06:13:16.163Z,100092.64
2019-03-10T06:15:44.747Z,100088.81
2019-03-10T06:18:14.160Z,100085.30
2019-03-10T06:20:43.078Z,100085.83
2019-03-10T06:23:11.635Z,100078.50
2019-03-10T06:25:40.263Z,100076.34
2019-03-10T06:28:08.868Z,100087.73
2019-03-10T06:30:37.442Z,100078.49
2019-03-10T06:33:06.030Z,100080.66
2019-03-10T06:35:34.594Z,100089.31
2019-03-10T06:38:03.205Z,100070.54
2019-03-10T06:40:32.644Z,100068.91
2019-03-10T06:43:01.227Z,100067.49
2019-03-10T06:45:29.888Z,100057.43
2019-03-10T06:47:58.475Z,100060.94
2019-03-10T06:50:27.121Z,100062.07
2019-03-10T06:52:55.770Z,100061.50
2019-03-10T06:55:24.317Z,100063.16
2019-03-10T06:57:52.873Z,100057.20
2019-03-10T07:00:21.478Z,100058.31
2019-03-10T07:02:50.039Z,100051.51
2019-03-10T07:05:18.652Z,100048.50
2019-03-10T07:07:47.204Z,100051.45
2019-03-10T07:10:16.485Z,100051.70
2019-03-10T07:12:45.092Z,100053.90
2019-03-10T07:15:14.461Z,100050.06
2019-03-10T07:17:43.090Z,100047.34
2019-03-10T07:20:18.011Z,100053.28
2019-03-10T07:22:46.588Z,100044.30
2019-03-10T07:25:15.181Z,100039.92
2019-03-10T07:28:01.768Z,100035.05
2019-03-10T07:30:35.082Z,100034.45
2019-03-10T07:33:21.866Z,100038.34
2019-03-10T07:35:52.131Z,100036.68
2019-03-10T07:38:22.666Z,100033.26
2019-03-10T07:40:58.834Z,100028.27
2019-03-10T07:43:29.147Z,100029.31
2019-03-10T07:45:59.329Z,100019.59
2019-03-10T07:48:38.428Z,100014.50
2019-03-10T07:51:08.713Z,100004.97
2019-03-10T07:53:38.959Z,100014.64
2019-03-10T07:56:11.386Z,100014.55
2019-03-10T07:58:47.166Z,100007.96
2019-03-10T08:01:20.070Z,100001.11
2019-03-10T08:03:50.341Z,99997.85
2019-03-10T08:06:29.126Z,99990.97
2019-03-10T08:09:14.742Z,99980.98
2019-03-10T08:11:50.065Z,99977.38
2019-03-10T08:14:29.307Z,99977.01
2019-03-10T08:17:08.321Z,99970.33
2019-03-10T08:19:48.054Z,99963.06
2019-03-10T08:22:18.256Z,99964.30
2019-03-10T08:25:03.238Z,99956.23
2019-03-10T08:27:45.476Z,99958.53
2019-03-10T08:30:24.687Z,99957.60
2019-03-10T08:32:55.157Z,99941.61
2019-03-10T08:35:25.995Z,99937.23
2019-03-10T08:37:59.803Z,99928.81
2019-03-10T08:40:30.039Z,99928.02
2019-03-10T08:43:19.488Z,99921.48
2019-03-10T08:45:52.646Z,99916.23
2019-03-10T08:48:25.947Z,99916.76
2019-03-10T08:51:04.933Z,99915.07
2019-03-10T08:53:35.239Z,99912.48
2019-03-10T08:56:20.424Z,99910.05
2019-03-10T08:58:53.475Z,99902.16
2019-03-10T09:01:38.963Z,99902.05
2019-03-10T09:04:11.985Z,99902.34
2019-03-10T09:06:44.575Z,99894.74
2019-03-10T09:09:25.911Z,99880.66
2019-03-10T09:11:56.761Z,99884.20
2019-03-10T09:14:29.939Z,99884.63
2019-03-10T09:17:16.776Z,99879.62
2019-03-10T09:19:49.451Z,99871.80
2019-03-10T09:22:32.006Z,99869.10
2019-03-10T09:25:22.348Z,99865.45
2019-03-10T09:27:52.558Z,99859.17
2019-03-10T09:30:22.790Z,99854.97
2019-03-10T09:33:09.435Z,99855.41
2019-03-10T09:35:45.812Z,99852.75
2019-03-10T09:38:17.115Z,99845.12
2019-03-10T09:40:50.584Z,99845.55
2019-03-10T09:43:37.295Z,99840.09
2019-03-10T09:46:23.636Z,99826.05
2019-03-10T09:49:05.820Z,99820.33
2019-03-10T09:51:36.193Z,99810.86
2019-03-10T09:54:22.999Z,99816.16
2019-03-10T09:56:55.162Z,99810.69
2019-03-10T09:59:28.739Z,99805.88
2019-03-10T10:01:58.947Z,99789.05
2019-03-10T10:04:47.196Z,99784.89
2019-03-10T10:07:29.305Z,99785.56
2019-03-10T10:10:17.458Z,99768.17
2019-03-10T10:12:52.805Z,99762.91
2019-03-10T10:15:38.713Z,99764.42
2019-03-10T10:18:14.373Z,99765.02
2019-03-10T10:20:56.279Z,99754.81
2019-03-10T10:23:35.420Z,99746.59
2019-03-10T10:26:05.719Z,99742.89
2019-03-10T10:28:44.682Z,99746.77
2019-03-10T10:31:23.613Z,99736.94
2019-03-10T10:33:59.705Z,99725.98
2019-03-10T10:36:44.893Z,99727.30
2019-03-10T10:39:20.835Z,99715.84
2019-03-10T10:41:56.811Z,99708.23
2019-03-10T10:44:27.387Z,99703.74
2019-03-10T10:47:03.587Z,99706.73
2019-03-10T10:49:33.809Z,99695.50
2019-03-10T10:52:13.091Z,99690.23
2019-03-10T10:55:00.036Z,99684.94
2019-03-10T10:57:35.959Z,99685.84
2019-03-10T11:00:21.217Z,99688.77
2019-03-10T11:02:51.486Z,99687.40
2019-03-10T11:05:22.019Z,99685.58
2019-03-10T11:07:52.278Z,99683.11
2019-03-10T11:10:25.190Z,99672.45
2019-03-10T11:13:07.796Z,99656.33
2019-03-10T11:15:45.724Z,99656.25
2019-03-10T11:18:28.459Z,99655.77
2019-03-10T11:21:07.633Z,99649.11
2019-03-10T11:23:54.045Z,99635.03
2019-03-10T11:26:36.723Z,99640.00
2019-03-10T11:29:07.042Z,99643.39
2019-03-10T11:31:52.007Z,99631.88
2019-03-10T11:34:30.886Z,99618.91
2019-03-10T11:37:10.277Z,99632.24
2019-03-10T11:39:43.563Z,99626.69
2019-03-10T11:42:14.253Z,99623.05
2019-03-10T11:44:53.726Z,99616.02
2019-03-10T11:47:25.270Z,99620.20
2019-03-10T11:50:02.295Z,99617.12
2019-03-10T11:52:33.557Z,99610.05
2019-03-10T11:55:06.843Z,99603.27
2019-03-10T11:57:46.198Z,99601.66
2019-03-10T12:00:27.387Z,99593.85
2019-03-10T12:03:06.666Z,99583.41
2019-03-10T12:05:36.979Z,99567.31
2019-03-10T12:08:12.910Z,99562.95
2019-03-10T12:10:41.660Z,99552.84
2019-03-10T12:13:10.186Z,99545.43
2019-03-10T12:15:38.872Z,99546.64
2019-03-10T12:18:07.860Z,99535.43
2019-03-10T12:20:37.288Z,99534.70
2019-03-10T12:23:05.850Z,99520.35
2019-03-10T12:25:34.599Z,99516.48
2019-03-10T12:28:03.679Z,99504.48
2019-03-10T12:30:32.334Z,99501.75
2019-03-10T12:33:00.901Z,99495.19
2019-03-10T12:35:34.322Z,99485.69
2019-03-10T12:37:59.898Z,99476.10
2019-03-10T12:40:29.546Z,99470.30
2019-03-10T12:42:58.246Z,99478.06
2019-03-10T12:45:27.138Z,99469.36
2019-03-10T12:47:55.925Z,99472.09
2019-03-10T12:50:24.578Z,99468.06
2019-03-10T12:52:53.243Z,99461.91
2019-03-10T12:55:21.986Z,99468.31
2019-03-10T12:57:51.051Z,99453.22
2019-03-10T13:00:19.837Z,99447.11
2019-03-10T13:02:48.672Z,99426.34
2019-03-10T13:05:17.410Z,99408.97
2019-03-10T13:07:45.958Z,99407.51
2019-03-10T13:10:25.786Z,99418.31
2019-03-10T13:12:54.522Z,99431.34
2019-03-10T13:15:23.528Z,99436.36
2019-03-10T13:17:52.434Z,99428.35
2019-03-10T13:20:28.246Z,99425.92
2019-03-10T13:22:51.300Z,99415.27
2019-03-10T13:25:19.904Z,99415.05
2019-03-10T13:27:48.762Z,99410.38
2019-03-10T13:30:17.776Z,99405.34
2019-03-10T13:32:46.675Z,99395.02
2019-03-10T13:35:15.257Z,99394.64
2019-03-10T13:37:43.919Z,99386.72
2019-03-10T13:40:14.393Z,99379.70
2019-03-10T13:42:43.139Z,99378.96
2019-03-10T13:45:15.191Z,99366.92
2019-03-10T13:47:43.918Z,99364.45
2019-03-10T13:50:15.278Z,99360.92
2019-03-10T13:52:43.959Z,99353.36
2019-03-10T13:55:13.507Z,99346.51
2019-03-10T13:57:43.495Z,99336.79
2019-03-10T14:00:19.823Z,99336.26
2019-03-10T14:02:49.137Z,99322.45
2019-03-10T14:05:17.668Z,99315.73
2019-03-10T14:07:47.750Z,99314.63
2019-03-10T14:10:16.426Z,99305.38
2019-03-10T14:12:45.410Z,99305.09
2019-03-10T14:15:16.662Z,99296.31
2019-03-10T14:17:45.235Z,99284.45
2019-03-10T14:20:15.462Z,99279.43
2019-03-10T14:22:44.593Z,99266.92
2019-03-10T14:25:16.654Z,99257.15
2019-03-10T14:27:45.665Z,99241.85
2019-03-10T14:30:19.706Z,99222.83
2019-03-10T14:32:49.175Z,99219.41
2019-03-10T14:35:17.751Z,99222.61
2019-03-10T14:37:46.525Z,99211.84
2019-03-10T14:40:19.931Z,99207.93
2019-03-10T14:42:48.631Z,99201.94
2019-03-10T14:45:18.303Z,99211.23
2019-03-10T14:47:47.238Z,99208.38
2019-03-10T14:50:18.105Z,99199.35
2019-03-10T14:52:47.164Z,99213.89
2019-03-10T14:55:18.635Z,99201.91
2019-03-10T14:57:47.557Z,99198.45
2019-03-10T15:00:25.635Z,99194.55
2019-03-10T15:02:54.814Z,99193.81
2019-03-10T15:05:23.778Z,99185.88
2019-03-10T15:07:54.903Z,99175.55
2019-03-10T15:10:23.493Z,99163.80
2019-03-10T15:12:52.270Z,99145.09
2019-03-10T15:15:23.136Z,99136.23
2019-03-10T15:17:51.979Z,99120.55
2019-03-10T15:20:21.796Z,99127.02
2019-03-10T15:22:51.081Z,99123.20
2019-03-10T15:25:21.037Z,99120.58
2019-03-10T15:27:49.759Z,99121.58
2019-03-10T15:30:21.907Z,99127.70
2019-03-10T15:32:55.307Z,99134.63
2019-03-10T15:35:23.871Z,99142.13
2019-03-10T15:37:53.027Z,99137.48
2019-03-10T15:40:23.640Z,99125.80
2019-03-10T15:42:52.965Z,99117.98
2019-03-10T15:45:21.775Z,99109.95
2019-03-10T15:47:50.335Z,99096.42
2019-03-10T15:50:24.906Z,99093.77
2019-03-10T15:52:54.486Z,99091.98
2019-03-10T15:55:24.434Z,99084.19
2019-03-10T15:57:53.476Z,99078.20
2019-03-10T16:00:26.649Z,99070.66
2019-03-10T16:02:55.819Z,99075.34
2019-03-10T16:05:25.042Z,99056.92
2019-03-10T16:07:53.770Z,99055.91
2019-03-10T16:10:22.706Z,99059.74
2019-03-10T16:12:51.327Z,99063.33
2019-03-10T16:15:23.512Z,99053.17
2019-03-10T16:17:52.130Z,99056.09
2019-03-10T16:20:20.806Z,99048.12
2019-03-10T16:22:49.267Z,99057.93
2019-03-10T16:25:19.369Z,99049.22
2019-03-10T16:27:49.887Z,99056.34
2019-03-10T16:30:23.129Z,99059.26
2019-03-10T16:32:53.041Z,99057.80
2019-03-10T16:35:22.737Z,99059.45
2019-03-10T16:37:52.173Z,99061.03
2019-03-10T16:40:22.028Z,99066.08
2019-03-10T16:42:51.092Z,99056.95
2019-03-10T16:45:24.461Z,99054.97
2019-03-10T16:47:53.930Z,99058.90
2019-03-10T16:50:27.328Z,99067.80
2019-03-10T16:52:56.985Z,99068.02
2019-03-10T16:55:26.360Z,99060.12
2019-03-10T16:57:55.065Z,99068.28
2019-03-10T17:00:23.602Z,99060.26
2019-03-10T17:02:53.147Z,99058.58
2019-03-10T17:05:22.925Z,99055.73
2019-03-10T17:07:51.750Z,99054.76
2019-03-10T17:10:22.149Z,99046.59
2019-03-10T17:12:51.185Z,99048.44
2019-03-10T17:15:23.601Z,99031.35
2019-03-10T17:17:52.283Z,99021.61
2019-03-10T17:20:21.370Z,99014.58
2019-03-10T17:22:50.741Z,99007.16
2019-03-10T17:25:19.349Z,99006.03
2019-03-10T17:27:48.965Z,99001.23
2019-03-10T17:30:19.419Z,99015.38
2019-03-10T17:32:49.210Z,99021.72
2019-03-10T17:35:18.840Z,99032.86
2019-03-10T17:37:49.463Z,99040.25
2019-03-10T17:40:19.397Z,99051.05
2019-03-10T17:42:48.156Z,99055.67
2019-03-10T17:45:23.080Z,99057.78
2019-03-10T17:47:51.858Z,99058.10
2019-03-10T17:50:20.821Z,99062.84
2019-03-10T17:52:50.392Z,99057.88
2019-03-10T17:55:20.426Z,99060.41
2019-03-10T17:57:48.998Z,99066.34
2019-03-10T18:00:39.285Z,99061.77
2019-03-10T18:03:08.020Z,99068.16
2019-03-10T18:05:36.668Z,99066.28
2019-03-10T18:08:05.453Z,99072.63
2019-03-10T18:10:34.373Z,99071.74
2019-03-10T18:13:03.050Z,99077.17
2019-03-10T18:15:32.390Z,99086.28
2019-03-10T18:18:01.655Z,99088.45
2019-03-10T18:20:33.542Z,99087.92
2019-03-10T18:23:03.205Z,99090.66
2019-03-10T18:25:33.271Z,99101.66
2019-03-10T18:28:02.771Z,99100.85
2019-03-10T18:30:31.909Z,99118.61
2019-03-10T18:33:00.734Z,99121.48
2019-03-10T18:35:30.489Z,99126.89
2019-03-10T18:37:59.071Z,99132.95
2019-03-10T18:40:29.106Z,99140.95
2019-03-10T18:42:58.513Z,99134.44
2019-03-10T18:45:28.153Z,99126.53
2019-03-10T18:48:04.440Z,99135.98
2019-03-10T18:50:33.354Z,99136.39
2019-03-10T18:53:02.114Z,99146.69
2019-03-10T18:55:32.088Z,99152.22
2019-03-10T18:58:01.060Z,99154.45
2019-03-10T19:00:31.554Z,99165.30
2019-03-10T19:03:00.312Z,99160.81
2019-03-10T19:05:28.926Z,99167.64
2019-03-10T19:07:58.039Z,99167.78
2019-03-10T19:10:26.823Z,99172.66
2019-03-10T19:12:55.620Z,99180.75
2019-03-10T19:15:28.143Z,99185.16
2019-03-10T19:17:56.812Z,99194.14
2019-03-10T19:20:25.526Z,99200.20
2019-03-10T19:22:54.347Z,99196.72
2019-03-10T19:25:25.356Z,99210.80
2019-03-10T19:27:56.201Z,99215.70
2019-03-10T19:30:25.369Z,99219.53
2019-03-10T19:32:54.525Z,99226.62
2019-03-10T19:35:23.111Z,99239.93
2019-03-10T19:37:51.869Z,99249.16
2019-03-10T19:40:22.856Z,99264.28
2019-03-10T19:42:51.583Z,99277.09
2019-03-10T19:45:22.852Z,99284.67
2019-03-10T19:47:51.611Z,99300.92
2019-03-10T19:50:27.219Z,99316.32
2019-03-10T19:52:56.370Z,99324.47
2019-03-10T19:55:24.933Z,99341.52
2019-03-10T19:57:53.925Z,99349.07
2019-03-10T20:00:23.172Z,99365.88
2019-03-10T20:02:51.812Z,99376.14
2019-03-10T20:05:20.409Z,99388.58
2019-03-10T20:07:49.498Z,99398.04
2019-03-10T20:10:19.382Z,99417.77
2019-03-10T20:12:49.290Z,99426.42
2019-03-10T20:15:25.344Z,99433.70
2019-03-10T20:17:58.521Z,99450.19
2019-03-10T20:20:32.727Z,99462.59
2019-03-10T20:23:01.563Z,99475.30
2019-03-10T20:25:30.681Z,99494.44
2019-03-10T20:27:59.306Z,99509.55
2019-03-10T20:30:28.355Z,99517.18
2019-03-10T20:32:57.040Z,99532.56
2019-03-10T20:35:26.035Z,99548.57
2019-03-10T20:37:54.658Z,99559.06
2019-03-10T20:40:28.334Z,99568.52
2019-03-10T20:42:59.483Z,99587.23
2019-03-10T20:45:28.118Z,99597.20
2019-03-10T20:47:57.046Z,99612.30
2019-03-10T20:50:25.803Z,99621.25
2019-03-10T20:52:54.414Z,99638.27
2019-03-10T20:55:23.039Z,99644.25
2019-03-10T20:57:51.613Z,99658.58
2019-03-10T21:00:23.492Z,99667.81
2019-03-10T21:02:52.466Z,99683.72
2019-03-10T21:05:21.525Z,99700.66
2019-03-10T21:07:50.646Z,99711.57
2019-03-10T21:10:21.692Z,99719.11
2019-03-10T21:12:50.768Z,99730.95
2019-03-10T21:15:20.728Z,99740.77
2019-03-10T21:17:49.228Z,99757.28
2019-03-10T21:20:21.226Z,99769.41
2019-03-10T21:22:49.807Z,99782.19
2019-03-10T21:25:26.581Z,99783.73
2019-03-10T21:27:55.468Z,99791.07
2019-03-10T21:30:32.383Z,99800.94
2019-03-10T21:33:01.079Z,99806.84
2019-03-10T21:35:29.631Z,99807.26
2019-03-10T21:37:58.532Z,99819.97
2019-03-10T21:40:30.990Z,99832.17
2019-03-10T21:42:59.742Z,99844.59
2019-03-10T21:45:28.255Z,99845.59
2019-03-10T21:47:56.875Z,99857.02
2019-03-10T21:50:25.449Z,99811.22
2019-03-10T21:52:54.604Z,99872.63
2019-03-10T21:55:23.339Z,99876.84
2019-03-10T21:57:51.927Z,99880.25
2019-03-10T22:00:21.078Z,99896.06
2019-03-10T22:02:49.759Z,99903.00
2019-03-10T22:05:18.754Z,99916.08
2019-03-10T22:07:47.657Z,99929.34
2019-03-10T22:10:27.163Z,99928.57
2019-03-10T22:12:48.394Z,99937.55
2019-03-10T22:15:19.079Z,99944.64
2019-03-10T22:17:47.712Z,99952.97
2019-03-10T22:20:18.232Z,99953.82
2019-03-10T22:22:49.645Z,99967.39
2019-03-10T22:25:17.731Z,99965.17
2019-03-10T22:27:46.618Z,99979.33
2019-03-10T22:30:22.727Z,99979.66
2019-03-10T22:32:51.300Z,99987.11
2019-03-10T22:35:20.113Z,99997.33
2019-03-10T22:37:49.384Z,100009.59
2019-03-10T22:40:18.454Z,100018.00
2019-03-10T22:42:47.131Z,100033.30
2019-03-10T22:45:19.677Z,100034.85
2019-03-10T22:47:48.565Z,100038.17
2019-03-10T22:50:17.428Z,100040.77
2019-03-10T22:52:46.528Z,100047.73
2019-03-10T22:55:16.086Z,100054.17
2019-03-10T22:57:44.698Z,100066.12
2019-03-10T23:00:25.942Z,100067.19
2019-03-10T23:02:54.594Z,100082.84
2019-03-10T23:05:23.254Z,100088.07
2019-03-10T23:07:51.889Z,100095.25
2019-03-10T23:10:20.797Z,100103.62
2019-03-10T23:12:49.300Z,100102.88
2019-03-10T23:15:17.848Z,100115.77
2019-03-10T23:17:46.399Z,100120.66
2019-03-10T23:20:16.788Z,100124.27
2019-03-10T23:22:45.350Z,100122.83
2019-03-10T23:25:14.216Z,100131.63
2019-03-10T23:27:43.305Z,100136.45
2019-03-10T23:30:14.725Z,100133.41
2019-03-10T23:32:43.263Z,100138.91
2019-03-10T23:35:11.805Z,100138.63
2019-03-10T23:37:40.433Z,100141.78
2019-03-10T23:40:14.149Z,100149.18
2019-03-10T23:42:43.125Z,100149.66
2019-03-10T23:45:14.118Z,100159.23
2019-03-10T23:47:42.739Z,100162.19
2019-03-10T23:50:13.085Z,100169.48
2019-03-10T23:52:41.719Z,100169.20
2019-03-10T23:55:12.459Z,100173.52
2019-03-10T23:57:41.040Z,100184.87
